createdAt,value
2022-07-31T00:01:09.171Z,5.50
2022-07-31T00:03:37.783Z,4.45
2022-07-31T00:06:08.047Z,4.53
2022-07-31T00:08:37.354Z,5.28
2022-07-31T00:11:06.066Z,5.75
2022-07-31T00:13:57.321Z,5.47
2022-07-31T00:16:22.963Z,4.30
2022-07-31T00:18:51.423Z,5.45
2022-07-31T00:21:21.235Z,5.05
2022-07-31T00:23:49.832Z,5.18
2022-07-31T00:26:18.193Z,5.80
2022-07-31T00:28:47.718Z,4.70
2022-07-31T00:31:16.415Z,4.85
2022-07-31T00:33:44.859Z,5.55
2022-07-31T00:36:14.999Z,5.07
2022-07-31T00:38:45.139Z,4.80
2022-07-31T00:41:13.542Z,5.18
2022-07-31T00:43:41.986Z,4.32
2022-07-31T00:46:14.354Z,5.05
2022-07-31T00:48:43.225Z,5.05
2022-07-31T00:51:12.633Z,5.10
2022-07-31T00:53:44.988Z,4.88
2022-07-31T00:56:13.593Z,5.15
2022-07-31T00:58:42.205Z,5.45
2022-07-31T01:01:10.589Z,5.00
2022-07-31T01:03:39.143Z,5.78
2022-07-31T01:06:08.104Z,5.95
2022-07-31T01:08:36.816Z,5.70
2022-07-31T01:11:11.474Z,4.93
2022-07-31T01:13:48.993Z,5.20
2022-07-31T01:16:19.294Z,4.97
2022-07-31T01:18:49.221Z,4.95
2022-07-31T01:21:25.241Z,4.93
2022-07-31T01:24:13.229Z,5.18
2022-07-31T01:27:05.563Z,5.28
2022-07-31T01:29:42.156Z,4.50
2022-07-31T01:32:15.831Z,5.00
2022-07-31T01:34:49.582Z,5.10
2022-07-31T01:37:28.018Z,5.32
2022-07-31T01:40:03.080Z,5.05
2022-07-31T01:42:32.953Z,5.35
2022-07-31T01:45:06.332Z,5.55
2022-07-31T01:47:36.526Z,5.15
2022-07-31T01:50:07.756Z,5.43
2022-07-31T01:52:36.731Z,4.82
2022-07-31T01:55:06.706Z,5.35
2022-07-31T01:57:38.051Z,5.20
2022-07-31T02:00:33.244Z,4.30
2022-07-31T02:03:09.232Z,5.15
2022-07-31T02:05:41.646Z,4.53
2022-07-31T02:08:11.966Z,5.70
2022-07-31T02:10:45.523Z,5.28
2022-07-31T02:13:14.834Z,5.25
2022-07-31T02:15:45.198Z,5.80
2022-07-31T02:18:16.801Z,4.60
2022-07-31T02:20:59.463Z,4.68
2022-07-31T02:23:28.096Z,5.10
2022-07-31T02:25:56.726Z,4.97
2022-07-31T02:28:27.281Z,5.03
2022-07-31T02:30:58.641Z,5.05
2022-07-31T02:33:27.925Z,5.00
2022-07-31T02:35:57.796Z,5.13
2022-07-31T02:38:28.730Z,4.45
2022-07-31T02:41:02.507Z,4.68
2022-07-31T02:43:33.277Z,5.70
2022-07-31T02:46:10.733Z,5.18
2022-07-31T02:48:40.579Z,4.80
2022-07-31T02:51:12.374Z,5.28
2022-07-31T02:53:43.603Z,4.22
2022-07-31T02:56:13.108Z,4.75
2022-07-31T02:58:43.754Z,4.93
2022-07-31T03:01:22.467Z,5.50
2022-07-31T03:03:51.388Z,5.60
2022-07-31T03:06:20.298Z,4.88
2022-07-31T03:08:49.288Z,4.13
2022-07-31T03:11:21.592Z,5.70
2022-07-31T03:13:50.296Z,4.85
2022-07-31T03:16:19.056Z,5.22
2022-07-31T03:18:50.303Z,4.75
2022-07-31T03:21:19.453Z,4.75
2022-07-31T03:23:49.148Z,5.28
2022-07-31T03:26:22.417Z,5.55
2022-07-31T03:28:50.779Z,4.20
2022-07-31T03:31:19.827Z,4.55
2022-07-31T03:33:49.770Z,4.05
2022-07-31T03:36:18.907Z,4.57
2022-07-31T03:38:50.471Z,5.00
2022-07-31T03:41:39.899Z,4.15
2022-07-31T03:44:09.199Z,4.95
2022-07-31T03:46:37.584Z,4.22
2022-07-31T03:49:08.948Z,4.18
2022-07-31T03:51:37.444Z,4.00
2022-07-31T03:54:07.148Z,4.85
2022-07-31T03:56:47.899Z,4.70
2022-07-31T03:59:19.020Z,5.10
2022-07-31T04:01:57.345Z,4.75
2022-07-31T04:04:43.724Z,4.80
2022-07-31T04:07:12.250Z,5.13
2022-07-31T04:09:40.867Z,4.55
2022-07-31T04:12:11.619Z,5.38
2022-07-31T04:14:40.100Z,5.00
2022-07-31T04:17:09.421Z,4.63
2022-07-31T04:19:38.329Z,4.97
2022-07-31T04:22:08.791Z,5.25
2022-07-31T04:24:38.136Z,5.47
2022-07-31T04:27:12.844Z,5.28
2022-07-31T04:29:45.135Z,4.55
2022-07-31T04:32:13.698Z,6.13
2022-07-31T04:34:48.708Z,4.95
2022-07-31T04:37:18.810Z,4.63
2022-07-31T04:39:47.291Z,4.50
2022-07-31T04:42:15.586Z,4.95
2022-07-31T04:44:45.223Z,5.13
2022-07-31T04:47:14.018Z,4.60
2022-07-31T04:49:44.866Z,5.40
2022-07-31T04:52:18.045Z,4.88
2022-07-31T04:54:48.530Z,4.38
2022-07-31T04:57:21.583Z,4.43
2022-07-31T04:59:57.928Z,4.60
2022-07-31T05:02:28.762Z,6.28
2022-07-31T05:04:57.559Z,5.35
2022-07-31T05:07:34.674Z,5.43
2022-07-31T05:10:08.211Z,4.82
2022-07-31T05:12:37.441Z,4.20
2022-07-31T05:15:07.892Z,4.93
2022-07-31T05:17:36.482Z,4.80
2022-07-31T05:20:23.643Z,4.10
2022-07-31T05:23:07.396Z,5.03
2022-07-31T05:25:53.848Z,3.78
2022-07-31T05:28:29.713Z,4.22
2022-07-31T05:30:59.260Z,4.10
2022-07-31T05:33:29.402Z,4.22
2022-07-31T05:35:58.888Z,4.43
2022-07-31T05:38:29.062Z,4.18
2022-07-31T05:41:23.022Z,3.78
2022-07-31T05:44:14.108Z,4.00
2022-07-31T05:46:47.026Z,3.58
2022-07-31T05:49:15.906Z,3.58
2022-07-31T05:51:47.113Z,3.42
2022-07-31T05:54:17.617Z,3.05
2022-07-31T05:57:04.260Z,3.28
2022-07-31T05:59:37.417Z,3.83
2022-07-31T06:02:06.168Z,3.05
2022-07-31T06:04:49.646Z,3.65
2022-07-31T06:07:17.913Z,3.60
2022-07-31T06:09:47.824Z,4.15
2022-07-31T06:12:19.643Z,3.85
2022-07-31T06:14:48.067Z,4.55
2022-07-31T06:17:28.983Z,3.63
2022-07-31T06:20:20.373Z,4.57
2022-07-31T06:22:48.876Z,3.60
2022-07-31T06:25:18.552Z,4.00
2022-07-31T06:27:52.875Z,3.75
2022-07-31T06:30:28.542Z,3.88
2022-07-31T06:32:56.738Z,4.60
2022-07-31T06:35:25.448Z,4.63
2022-07-31T06:38:13.836Z,4.13
2022-07-31T06:41:03.615Z,4.20
2022-07-31T06:43:48.974Z,4.18
2022-07-31T06:46:35.658Z,4.80
2022-07-31T06:49:22.750Z,4.68
2022-07-31T06:51:51.080Z,4.45
2022-07-31T06:54:20.114Z,5.10
2022-07-31T06:56:57.472Z,4.72
2022-07-31T06:59:40.018Z,5.15
2022-07-31T07:02:09.668Z,5.13
2022-07-31T07:05:06.116Z,4.78
2022-07-31T07:07:31.486Z,5.47
2022-07-31T07:10:02.149Z,4.65
2022-07-31T07:13:03.989Z,4.15
2022-07-31T07:15:36.573Z,5.43
2022-07-31T07:18:06.934Z,5.35
2022-07-31T07:20:50.588Z,4.30
2022-07-31T07:23:19.954Z,3.90
2022-07-31T07:26:08.619Z,4.25
2022-07-31T07:28:38.822Z,3.97
2022-07-31T07:31:08.847Z,4.40
2022-07-31T07:33:40.675Z,4.28
2022-07-31T07:36:22.936Z,5.00
2022-07-31T07:38:55.899Z,4.45
2022-07-31T07:41:25.442Z,4.07
2022-07-31T07:43:55.345Z,3.95
2022-07-31T07:46:28.083Z,4.47
2022-07-31T07:48:58.992Z,5.32
2022-07-31T07:51:36.921Z,4.43
2022-07-31T07:54:30.999Z,5.75
2022-07-31T07:57:18.634Z,3.95
2022-07-31T08:00:10.875Z,4.22
2022-07-31T08:03:47.343Z,4.78
2022-07-31T08:05:37.463Z,4.78
2022-07-31T08:08:06.217Z,4.88
2022-07-31T08:11:04.863Z,4.40
2022-07-31T08:13:59.132Z,4.72
2022-07-31T08:16:58.087Z,4.30
2022-07-31T08:19:26.706Z,5.57
2022-07-31T08:21:55.809Z,3.92
2022-07-31T08:24:25.150Z,3.85
2022-07-31T08:27:11.845Z,4.10
2022-07-31T08:29:43.800Z,4.20
2022-07-31T08:32:19.434Z,3.80
2022-07-31T08:35:16.955Z,3.80
2022-07-31T08:37:51.231Z,3.78
2022-07-31T08:40:34.747Z,4.28
2022-07-31T08:44:02.639Z,3.80
2022-07-31T08:46:03.519Z,4.18
2022-07-31T08:48:42.017Z,3.75
2022-07-31T08:51:13.816Z,4.10
2022-07-31T08:53:58.496Z,4.72
2022-07-31T08:56:27.591Z,4.20
2022-07-31T08:58:56.985Z,4.30
2022-07-31T09:01:25.871Z,4.38
2022-07-31T09:03:55.985Z,4.78
2022-07-31T09:06:24.349Z,4.60
2022-07-31T09:08:53.046Z,3.85
2022-07-31T09:11:21.282Z,4.38
2022-07-31T09:14:07.206Z,3.95
2022-07-31T09:16:47.644Z,4.05
2022-07-31T09:19:52.896Z,4.03
2022-07-31T09:22:23.321Z,3.92
2022-07-31T09:24:52.561Z,3.65
2022-07-31T09:27:21.509Z,3.45
2022-07-31T09:29:50.130Z,3.58
2022-07-31T09:32:29.444Z,3.90
2022-07-31T09:35:11.311Z,3.30
2022-07-31T09:37:41.129Z,3.42
2022-07-31T09:40:37.566Z,2.83
2022-07-31T09:43:56.158Z,3.10
2022-07-31T09:46:25.723Z,3.63
2022-07-31T09:49:00.169Z,3.60
2022-07-31T09:51:39.461Z,2.97
2022-07-31T09:54:09.860Z,3.17
2022-07-31T09:57:12.348Z,3.97
2022-07-31T09:59:46.862Z,3.45
2022-07-31T10:02:17.050Z,2.85
2022-07-31T10:04:50.845Z,4.03
2022-07-31T10:07:31.623Z,2.97
2022-07-31T10:10:15.501Z,2.67
2022-07-31T10:13:09.819Z,3.63
2022-07-31T10:15:40.768Z,2.97
2022-07-31T10:18:35.822Z,3.08
2022-07-31T10:21:34.828Z,3.63
2022-07-31T10:24:12.423Z,2.85
2022-07-31T10:27:00.705Z,2.53
2022-07-31T10:29:32.679Z,2.65
2022-07-31T10:32:02.953Z,2.85
2022-07-31T10:34:35.019Z,3.13
2022-07-31T10:37:26.098Z,2.97
2022-07-31T10:40:27.542Z,3.13
2022-07-31T10:43:18.367Z,3.03
2022-07-31T10:45:57.693Z,3.10
2022-07-31T10:48:53.034Z,2.42
2022-07-31T10:51:48.445Z,2.72
2022-07-31T10:54:42.875Z,2.40
2022-07-31T10:57:34.688Z,2.40
2022-07-31T11:00:40.535Z,2.53
2022-07-31T11:03:27.660Z,3.55
2022-07-31T11:06:16.318Z,2.70
2022-07-31T11:08:57.463Z,2.55
2022-07-31T11:11:55.019Z,3.53
2022-07-31T11:14:41.986Z,2.40
2022-07-31T11:18:22.056Z,3.55
2022-07-31T11:20:41.054Z,2.22
2022-07-31T11:23:10.141Z,2.55
2022-07-31T11:25:39.118Z,2.47
2022-07-31T11:28:16.137Z,3.05
2022-07-31T11:30:53.512Z,2.83
2022-07-31T11:33:42.125Z,3.30
2022-07-31T11:36:13.315Z,2.83
2022-07-31T11:38:43.235Z,3.15
2022-07-31T11:41:14.931Z,2.88
2022-07-31T11:43:47.655Z,1.75
2022-07-31T11:46:24.514Z,2.90
2022-07-31T11:48:53.034Z,2.38
2022-07-31T11:51:22.012Z,2.92
2022-07-31T11:53:56.864Z,3.35
2022-07-31T11:56:28.589Z,2.40
2022-07-31T11:58:58.460Z,3.00
2022-07-31T12:01:29.627Z,2.55
2022-07-31T12:04:07.616Z,2.45
2022-07-31T12:06:38.517Z,2.72
2022-07-31T12:09:07.026Z,2.17
2022-07-31T12:11:35.610Z,2.60
2022-07-31T12:14:04.103Z,2.28
2022-07-31T12:16:41.859Z,2.85
2022-07-31T12:19:10.392Z,2.53
2022-07-31T12:21:40.536Z,3.38
2022-07-31T12:24:13.002Z,2.70
2022-07-31T12:26:45.285Z,4.18
2022-07-31T12:29:13.987Z,3.80
2022-07-31T12:31:48.960Z,3.38
2022-07-31T12:34:27.828Z,2.83
2022-07-31T12:37:01.130Z,3.20
2022-07-31T12:39:53.918Z,3.20
2022-07-31T12:42:30.396Z,3.83
2022-07-31T12:45:18.199Z,3.10
2022-07-31T12:47:55.116Z,2.75
2022-07-31T12:50:24.225Z,2.30
2022-07-31T12:52:52.850Z,2.83
2022-07-31T12:55:22.431Z,2.25
2022-07-31T12:57:52.225Z,1.60
2022-07-31T13:00:23.607Z,1.95
2022-07-31T13:02:53.964Z,2.53
2022-07-31T13:05:23.193Z,2.15
2022-07-31T13:07:51.742Z,2.60
2022-07-31T13:10:24.046Z,2.83
2022-07-31T13:12:53.975Z,2.10
2022-07-31T13:15:29.834Z,2.17
2022-07-31T13:18:01.916Z,2.28
2022-07-31T13:20:31.041Z,2.30
2022-07-31T13:23:01.210Z,2.15
2022-07-31T13:25:30.593Z,2.53
2022-07-31T13:27:58.989Z,2.03
2022-07-31T13:30:28.687Z,1.90
2022-07-31T13:32:57.338Z,2.17
2022-07-31T13:35:29.034Z,2.33
2022-07-31T13:37:58.142Z,1.73
2022-07-31T13:40:40.876Z,2.80
2022-07-31T13:43:09.504Z,1.98
2022-07-31T13:45:38.310Z,2.67
2022-07-31T13:48:09.527Z,2.08
2022-07-31T13:50:41.390Z,2.00
2022-07-31T13:53:10.417Z,2.22
2022-07-31T13:55:39.249Z,1.95
2022-07-31T13:58:08.286Z,2.20
2022-07-31T14:00:36.722Z,2.03
2022-07-31T14:03:05.070Z,1.92
2022-07-31T14:05:40.489Z,2.35
2022-07-31T14:08:30.115Z,2.42
2022-07-31T14:10:59.405Z,2.60
2022-07-31T14:13:28.886Z,2.05
2022-07-31T14:15:57.147Z,2.00
2022-07-31T14:18:25.767Z,1.95
2022-07-31T14:20:54.048Z,2.50
2022-07-31T14:23:26.385Z,2.42
2022-07-31T14:26:03.970Z,2.22
2022-07-31T14:28:32.540Z,3.25
2022-07-31T14:31:00.808Z,2.28
2022-07-31T14:33:29.325Z,2.10
2022-07-31T14:35:57.833Z,2.65
2022-07-31T14:38:27.902Z,2.30
2022-07-31T14:40:56.921Z,1.85
2022-07-31T14:43:25.271Z,2.70
2022-07-31T14:45:53.561Z,2.13
2022-07-31T14:48:22.433Z,2.15
2022-07-31T14:50:50.663Z,2.83
2022-07-31T14:53:19.096Z,1.70
2022-07-31T14:55:48.936Z,2.22
2022-07-31T14:58:17.208Z,2.35
2022-07-31T15:00:46.097Z,2.72
2022-07-31T15:03:14.935Z,2.03
2022-07-31T15:06:49.242Z,2.03
2022-07-31T15:08:31.665Z,1.80
2022-07-31T15:11:01.464Z,2.00
2022-07-31T15:13:30.522Z,2.35
2022-07-31T15:15:59.006Z,2.47
2022-07-31T15:18:27.538Z,2.03
2022-07-31T15:20:55.934Z,2.20
2022-07-31T15:23:24.685Z,1.90
2022-07-31T15:25:53.320Z,1.88
2022-07-31T15:28:23.074Z,2.42
2022-07-31T15:30:51.799Z,2.28
2022-07-31T15:33:20.054Z,1.67
2022-07-31T15:35:48.391Z,2.85
2022-07-31T15:38:17.019Z,2.10
2022-07-31T15:40:47.017Z,1.75
2022-07-31T15:43:15.250Z,2.40
2022-07-31T15:45:45.423Z,2.45
2022-07-31T15:48:13.808Z,2.08
2022-07-31T15:50:42.308Z,2.75
2022-07-31T15:53:10.843Z,1.60
2022-07-31T15:55:39.242Z,2.00
2022-07-31T15:58:07.529Z,2.10
2022-07-31T16:00:36.196Z,1.90
2022-07-31T16:03:06.177Z,2.25
2022-07-31T16:05:37.054Z,2.83
2022-07-31T16:08:29.794Z,1.80
2022-07-31T16:10:57.647Z,2.28
2022-07-31T16:13:26.902Z,2.15
2022-07-31T16:15:55.479Z,2.15
2022-07-31T16:18:25.567Z,2.80
2022-07-31T16:20:54.229Z,2.30
2022-07-31T16:23:25.580Z,6.05
2022-07-31T16:25:53.857Z,3.40
2022-07-31T16:28:22.546Z,3.03
2022-07-31T16:30:51.883Z,3.58
2022-07-31T16:33:20.210Z,9.65
2022-07-31T16:35:50.226Z,2.97
2022-07-31T16:38:18.556Z,1.83
2022-07-31T16:40:49.666Z,2.88
2022-07-31T16:43:49.859Z,3.70
2022-07-31T16:46:08.935Z,2.97
2022-07-31T16:48:37.483Z,4.65
2022-07-31T16:51:07.547Z,3.65
2022-07-31T16:54:12.112Z,4.00
2022-07-31T16:56:24.590Z,2.00
2022-07-31T16:58:54.749Z,2.60
2022-07-31T17:01:57.813Z,2.65
2022-07-31T17:04:13.811Z,2.92
2022-07-31T17:06:43.386Z,2.22
2022-07-31T17:09:15.801Z,2.08
2022-07-31T17:11:49.008Z,2.10
2022-07-31T17:14:18.241Z,2.03
2022-07-31T17:16:48.789Z,2.42
2022-07-31T17:19:41.621Z,2.45
2022-07-31T17:22:11.227Z,2.45
2022-07-31T17:24:40.539Z,3.35
2022-07-31T17:27:09.684Z,6.28
2022-07-31T17:29:39.494Z,16.38
2022-07-31T17:32:08.158Z,15.23
2022-07-31T17:34:40.231Z,11.02
2022-07-31T17:37:10.318Z,3.72
2022-07-31T17:39:38.869Z,2.75
2022-07-31T17:42:09.292Z,2.10
2022-07-31T17:44:37.962Z,2.20
2022-07-31T17:47:08.738Z,2.35
2022-07-31T17:49:37.536Z,2.55
2022-07-31T17:52:06.811Z,2.47
2022-07-31T17:54:36.519Z,3.33
2022-07-31T17:57:05.327Z,2.67
2022-07-31T17:59:33.960Z,77.80
2022-07-31T18:02:03.744Z,47.47
2022-07-31T18:04:34.259Z,14.98
2022-07-31T18:07:05.200Z,20.00
2022-07-31T18:09:35.132Z,26.55
2022-07-31T18:12:05.912Z,44.92
2022-07-31T18:14:34.304Z,17.80
2022-07-31T18:17:02.992Z,13.85
2022-07-31T18:19:31.523Z,13.52
2022-07-31T18:22:00.115Z,7.85
2022-07-31T18:24:28.461Z,5.70
2022-07-31T18:26:56.898Z,5.20
2022-07-31T18:29:26.504Z,5.43
2022-07-31T18:31:54.746Z,3.97
2022-07-31T18:34:23.338Z,4.13
2022-07-31T18:36:54.790Z,4.25
2022-07-31T18:39:24.350Z,3.88
2022-07-31T18:41:52.863Z,2.83
2022-07-31T18:44:22.070Z,3.13
2022-07-31T18:46:53.036Z,3.40
2022-07-31T18:50:58.188Z,3.50
2022-07-31T18:52:10.408Z,3.20
2022-07-31T18:54:39.239Z,3.53
2022-07-31T18:57:07.796Z,2.75
2022-07-31T18:59:36.817Z,9.18
2022-07-31T19:02:08.876Z,26.52
2022-07-31T19:04:40.085Z,72.63
2022-07-31T19:07:08.707Z,44.83
2022-07-31T19:09:37.009Z,59.83
2022-07-31T19:12:08.455Z,34.58
2022-07-31T19:14:36.977Z,16.05
2022-07-31T19:17:07.033Z,14.15
2022-07-31T19:19:54.234Z,14.30
2022-07-31T19:22:24.000Z,6.65
2022-07-31T19:24:52.606Z,9.95
2022-07-31T19:27:21.116Z,5.88
2022-07-31T19:29:49.401Z,5.80
2022-07-31T19:32:19.217Z,5.93
2022-07-31T19:34:47.973Z,5.32
2022-07-31T19:37:19.022Z,4.60
2022-07-31T19:39:47.851Z,5.50
2022-07-31T19:42:16.171Z,4.00
2022-07-31T19:44:44.952Z,4.60
2022-07-31T19:47:13.196Z,3.63
2022-07-31T19:49:44.710Z,4.63
2022-07-31T19:52:13.663Z,4.55
2022-07-31T19:54:41.978Z,4.70
2022-07-31T19:57:10.951Z,4.60
2022-07-31T19:59:39.625Z,4.45
2022-07-31T20:02:08.265Z,15.38
2022-07-31T20:04:37.492Z,14.85
2022-07-31T20:07:07.375Z,8.50
2022-07-31T20:09:38.123Z,23.40
2022-07-31T20:12:07.631Z,9.57
2022-07-31T20:14:36.203Z,41.22
2022-07-31T20:17:04.450Z,16.45
2022-07-31T20:19:32.788Z,14.45
2022-07-31T20:22:01.053Z,10.30
2022-07-31T20:24:30.775Z,7.00
2022-07-31T20:26:59.205Z,6.25
2022-07-31T20:29:27.648Z,4.95
2022-07-31T20:31:55.845Z,3.83
2022-07-31T20:34:25.830Z,4.45
2022-07-31T20:36:55.219Z,3.88
2022-07-31T20:39:27.246Z,3.85
2022-07-31T20:42:05.739Z,4.60
2022-07-31T20:44:34.121Z,9.07
2022-07-31T20:47:02.728Z,10.55
2022-07-31T20:49:35.046Z,13.38
2022-07-31T20:52:05.743Z,10.35
2022-07-31T20:54:35.002Z,10.10
2022-07-31T20:57:04.749Z,9.68
2022-07-31T20:59:33.106Z,6.50
2022-07-31T21:02:01.372Z,7.97
2022-07-31T21:04:30.034Z,6.03
2022-07-31T21:06:59.721Z,5.10
2022-07-31T21:09:31.521Z,4.22
2022-07-31T21:12:02.433Z,4.50
2022-07-31T21:14:32.309Z,4.45
2022-07-31T21:17:00.794Z,3.78
2022-07-31T21:19:29.043Z,3.80
2022-07-31T21:21:57.258Z,4.57
2022-07-31T21:24:26.141Z,3.78
2022-07-31T21:26:57.947Z,3.53
2022-07-31T21:29:27.203Z,4.53
2022-07-31T21:31:57.679Z,7.07
2022-07-31T21:34:26.442Z,6.28
2022-07-31T21:36:55.485Z,6.22
2022-07-31T21:39:25.862Z,5.30
2022-07-31T21:41:54.739Z,4.25
2022-07-31T21:44:23.599Z,5.63
2022-07-31T21:46:56.060Z,5.00
2022-07-31T21:49:30.475Z,4.60
2022-07-31T21:51:59.337Z,4.03
2022-07-31T21:54:27.730Z,5.15
2022-07-31T21:56:56.139Z,6.50
2022-07-31T21:59:24.445Z,5.90
2022-07-31T22:01:57.769Z,6.65
2022-07-31T22:04:34.430Z,4.25
2022-07-31T22:07:20.578Z,7.85
2022-07-31T22:09:48.809Z,8.02
2022-07-31T22:12:17.658Z,7.25
2022-07-31T22:14:45.958Z,5.45
2022-07-31T22:17:14.129Z,5.13
2022-07-31T22:19:47.330Z,6.10
2022-07-31T22:22:16.836Z,6.45
2022-07-31T22:24:45.725Z,9.38
2022-07-31T22:27:32.890Z,9.68
2022-07-31T22:30:02.095Z,9.38
2022-07-31T22:32:30.707Z,9.00
2022-07-31T22:35:03.428Z,8.30
2022-07-31T22:37:32.448Z,6.22
2022-07-31T22:40:01.367Z,7.75
2022-07-31T22:42:29.960Z,8.43
2022-07-31T22:44:58.843Z,6.18
2022-07-31T22:47:28.158Z,5.95
2022-07-31T22:49:56.943Z,6.82
2022-07-31T22:52:34.660Z,6.45
2022-07-31T22:55:06.071Z,8.43
2022-07-31T22:57:34.518Z,6.53
2022-07-31T23:00:03.489Z,7.10
2022-07-31T23:02:31.740Z,6.35
2022-07-31T23:05:00.125Z,5.82
2022-07-31T23:07:29.703Z,6.85
2022-07-31T23:09:57.921Z,5.57
2022-07-31T23:12:28.667Z,5.88
2022-07-31T23:14:57.841Z,5.63
2022-07-31T23:17:26.066Z,5.70
2022-07-31T23:19:54.844Z,5.10
2022-07-31T23:22:33.391Z,4.88
2022-07-31T23:25:05.293Z,5.45
2022-07-31T23:27:33.812Z,5.82
2022-07-31T23:30:02.254Z,7.75
2022-07-31T23:32:30.823Z,6.15
2022-07-31T23:34:59.277Z,7.13
2022-07-31T23:37:27.825Z,7.28
2022-07-31T23:39:56.244Z,6.22
2022-07-31T23:42:39.804Z,7.00
2022-07-31T23:45:11.394Z,7.57
2022-07-31T23:47:45.482Z,6.05
2022-07-31T23:50:15.127Z,6.75
2022-07-31T23:52:43.558Z,6.28
2022-07-31T23:55:12.231Z,5.78
2022-07-31T23:57:42.852Z,6.65
